sensor_id;sensor_type;location;lat;lon;timestamp;P1;durP1;ratioP1;P2;durP2;ratioP2
9413;SDS011;4746;35.664;139.738;2022-08-01T00:02:27;3.10;;;2.53;;
9413;SDS011;4746;35.664;139.738;2022-08-01T00:04:56;3.13;;;2.80;;
9413;SDS011;4746;35.664;139.738;2022-08-01T00:07:25;3.00;;;2.80;;
9413;SDS011;4746;35.664;139.738;2022-08-01T00:09:53;2.85;;;2.65;;
9413;SDS011;4746;35.664;139.738;2022-08-01T00:12:20;3.95;;;2.55;;
9413;SDS011;4746;35.664;139.738;2022-08-01T00:14:48;3.97;;;3.30;;
9413;SDS011;4746;35.664;139.738;2022-08-01T00:17:15;3.35;;;3.05;;
9413;SDS011;4746;35.664;139.738;2022-08-01T00:19:43;3.17;;;2.90;;
9413;SDS011;4746;35.664;139.738;2022-08-01T00:22:11;3.88;;;3.58;;
9413;SDS011;4746;35.664;139.738;2022-08-01T00:24:38;5.72;;;5.20;;
9413;SDS011;4746;35.664;139.738;2022-08-01T00:27:06;3.67;;;3.38;;
9413;SDS011;4746;35.664;139.738;2022-08-01T00:29:33;3.72;;;3.42;;
9413;SDS011;4746;35.664;139.738;2022-08-01T00:32:01;3.53;;;3.33;;
9413;SDS011;4746;35.664;139.738;2022-08-01T00:34:28;5.60;;;3.55;;
9413;SDS011;4746;35.664;139.738;2022-08-01T00:36:56;4.25;;;3.58;;
9413;SDS011;4746;35.664;139.738;2022-08-01T00:39:23;3.97;;;3.65;;
9413;SDS011;4746;35.664;139.738;2022-08-01T00:41:51;6.18;;;4.03;;
9413;SDS011;4746;35.664;139.738;2022-08-01T00:44:18;6.47;;;4.72;;
9413;SDS011;4746;35.664;139.738;2022-08-01T00:46:46;5.63;;;4.68;;
9413;SDS011;4746;35.664;139.738;2022-08-01T00:49:14;6.00;;;4.40;;
9413;SDS011;4746;35.664;139.738;2022-08-01T00:51:41;5.22;;;4.72;;
9413;SDS011;4746;35.664;139.738;2022-08-01T00:54:09;6.80;;;5.50;;
9413;SDS011;4746;35.664;139.738;2022-08-01T00:56:37;7.85;;;5.07;;
9413;SDS011;4746;35.664;139.738;2022-08-01T00:59:04;5.18;;;4.70;;
9413;SDS011;4746;35.664;139.738;2022-08-01T01:01:33;9.48;;;5.22;;
9413;SDS011;4746;35.664;139.738;2022-08-01T01:04:00;6.65;;;5.90;;
9413;SDS011;4746;35.664;139.738;2022-08-01T01:06:37;9.05;;;6.43;;
9413;SDS011;4746;35.664;139.738;2022-08-01T01:15:01;7.88;;;6.32;;
9413;SDS011;4746;35.664;139.738;2022-08-01T01:20:38;10.57;;;7.28;;
9413;SDS011;4746;35.664;139.738;2022-08-01T01:26:10;8.35;;;7.45;;
9413;SDS011;4746;35.664;139.738;2022-08-01T01:28:55;12.10;;;7.93;;
9413;SDS011;4746;35.664;139.738;2022-08-01T01:31:55;10.02;;;7.45;;
9413;SDS011;4746;35.664;139.738;2022-08-01T01:34:44;14.52;;;7.72;;
9413;SDS011;4746;35.664;139.738;2022-08-01T01:37:17;8.27;;;7.35;;
9413;SDS011;4746;35.664;139.738;2022-08-01T01:39:50;9.20;;;7.43;;
9413;SDS011;4746;35.664;139.738;2022-08-01T01:42:20;12.75;;;7.68;;
9413;SDS011;4746;35.664;139.738;2022-08-01T01:44:51;9.40;;;7.07;;
9413;SDS011;4746;35.664;139.738;2022-08-01T01:47:21;7.78;;;6.97;;
9413;SDS011;4746;35.664;139.738;2022-08-01T01:49:52;8.85;;;7.05;;
9413;SDS011;4746;35.664;139.738;2022-08-01T01:52:23;11.63;;;8.32;;
9413;SDS011;4746;35.664;139.738;2022-08-01T01:54:52;9.60;;;8.60;;
9413;SDS011;4746;35.664;139.738;2022-08-01T01:57:21;10.65;;;8.18;;
9413;SDS011;4746;35.664;139.738;2022-08-01T01:59:51;12.48;;;8.05;;
9413;SDS011;4746;35.664;139.738;2022-08-01T02:02:21;9.88;;;8.52;;
9413;SDS011;4746;35.664;139.738;2022-08-01T02:04:51;11.55;;;9.18;;
9413;SDS011;4746;35.664;139.738;2022-08-01T02:07:21;10.40;;;8.88;;
9413;SDS011;4746;35.664;139.738;2022-08-01T02:09:52;10.38;;;9.40;;
9413;SDS011;4746;35.664;139.738;2022-08-01T02:12:24;10.80;;;8.82;;
9413;SDS011;4746;35.664;139.738;2022-08-01T02:14:53;9.35;;;8.18;;
9413;SDS011;4746;35.664;139.738;2022-08-01T02:17:21;10.25;;;8.48;;
9413;SDS011;4746;35.664;139.738;2022-08-01T02:19:52;12.60;;;9.57;;
9413;SDS011;4746;35.664;139.738;2022-08-01T02:22:33;11.93;;;9.82;;
9413;SDS011;4746;35.664;139.738;2022-08-01T02:28:24;10.88;;;9.70;;
9413;SDS011;4746;35.664;139.738;2022-08-01T02:31:02;8.02;;;7.32;;
9413;SDS011;4746;35.664;139.738;2022-08-01T02:33:38;9.73;;;7.93;;
9413;SDS011;4746;35.664;139.738;2022-08-01T02:36:10;7.65;;;6.88;;
9413;SDS011;4746;35.664;139.738;2022-08-01T02:38:41;8.13;;;6.70;;
9413;SDS011;4746;35.664;139.738;2022-08-01T02:41:17;8.23;;;6.72;;
9413;SDS011;4746;35.664;139.738;2022-08-01T02:43:51;8.32;;;6.85;;
9413;SDS011;4746;35.664;139.738;2022-08-01T02:46:29;7.57;;;6.85;;
9413;SDS011;4746;35.664;139.738;2022-08-01T02:49:14;7.78;;;7.07;;
9413;SDS011;4746;35.664;139.738;2022-08-01T02:51:45;7.47;;;6.78;;
9413;SDS011;4746;35.664;139.738;2022-08-01T02:54:15;8.18;;;7.38;;
9413;SDS011;4746;35.664;139.738;2022-08-01T02:56:47;7.53;;;6.90;;
9413;SDS011;4746;35.664;139.738;2022-08-01T02:59:18;7.70;;;6.93;;
9413;SDS011;4746;35.664;139.738;2022-08-01T03:01:51;9.40;;;7.00;;
9413;SDS011;4746;35.664;139.738;2022-08-01T03:04:23;8.38;;;6.35;;
9413;SDS011;4746;35.664;139.738;2022-08-01T03:06:54;7.07;;;6.50;;
9413;SDS011;4746;35.664;139.738;2022-08-01T03:09:25;8.30;;;7.60;;
9413;SDS011;4746;35.664;139.738;2022-08-01T03:11:55;7.20;;;6.57;;
9413;SDS011;4746;35.664;139.738;2022-08-01T03:14:26;7.32;;;6.82;;
9413;SDS011;4746;35.664;139.738;2022-08-01T03:17:00;7.60;;;6.88;;
9413;SDS011;4746;35.664;139.738;2022-08-01T03:19:31;7.30;;;6.55;;
9413;SDS011;4746;35.664;139.738;2022-08-01T03:22:03;6.82;;;6.28;;
9413;SDS011;4746;35.664;139.738;2022-08-01T03:24:38;9.85;;;8.40;;
9413;SDS011;4746;35.664;139.738;2022-08-01T03:27:08;7.35;;;6.40;;
9413;SDS011;4746;35.664;139.738;2022-08-01T03:29:37;8.15;;;7.43;;
9413;SDS011;4746;35.664;139.738;2022-08-01T03:32:07;7.45;;;6.63;;
9413;SDS011;4746;35.664;139.738;2022-08-01T03:34:38;8.15;;;6.97;;
9413;SDS011;4746;35.664;139.738;2022-08-01T03:37:09;7.80;;;7.00;;
9413;SDS011;4746;35.664;139.738;2022-08-01T03:43:08;8.75;;;7.38;;
9413;SDS011;4746;35.664;139.738;2022-08-01T03:46:06;7.85;;;7.05;;
9413;SDS011;4746;35.664;139.738;2022-08-01T03:48:44;6.78;;;6.10;;
9413;SDS011;4746;35.664;139.738;2022-08-01T03:51:15;7.43;;;6.60;;
9413;SDS011;4746;35.664;139.738;2022-08-01T03:53:45;10.10;;;7.80;;
9413;SDS011;4746;35.664;139.738;2022-08-01T03:56:18;9.07;;;7.57;;
9413;SDS011;4746;35.664;139.738;2022-08-01T03:58:48;8.70;;;7.90;;
9413;SDS011;4746;35.664;139.738;2022-08-01T04:01:17;8.13;;;7.43;;
9413;SDS011;4746;35.664;139.738;2022-08-01T04:03:45;8.38;;;7.03;;
9413;SDS011;4746;35.664;139.738;2022-08-01T04:06:12;8.82;;;7.95;;
9413;SDS011;4746;35.664;139.738;2022-08-01T04:08:40;8.60;;;7.68;;
9413;SDS011;4746;35.664;139.738;2022-08-01T04:11:08;8.45;;;7.70;;
9413;SDS011;4746;35.664;139.738;2022-08-01T04:13:37;7.90;;;7.18;;
9413;SDS011;4746;35.664;139.738;2022-08-01T04:16:05;8.43;;;7.60;;
9413;SDS011;4746;35.664;139.738;2022-08-01T04:18:33;8.05;;;7.25;;
9413;SDS011;4746;35.664;139.738;2022-08-01T04:21:01;8.27;;;7.53;;
9413;SDS011;4746;35.664;139.738;2022-08-01T04:23:28;10.70;;;8.77;;
9413;SDS011;4746;35.664;139.738;2022-08-01T04:26:00;9.27;;;7.97;;
9413;SDS011;4746;35.664;139.738;2022-08-01T04:28:30;10.38;;;8.60;;
9413;SDS011;4746;35.664;139.738;2022-08-01T04:31:01;10.38;;;8.82;;
9413;SDS011;4746;35.664;139.738;2022-08-01T04:33:38;9.23;;;7.97;;
9413;SDS011;4746;35.664;139.738;2022-08-01T04:36:12;9.13;;;8.32;;
9413;SDS011;4746;35.664;139.738;2022-08-01T04:38:44;10.95;;;8.23;;
9413;SDS011;4746;35.664;139.738;2022-08-01T04:41:16;8.57;;;7.78;;
9413;SDS011;4746;35.664;139.738;2022-08-01T04:43:45;10.55;;;8.52;;
9413;SDS011;4746;35.664;139.738;2022-08-01T04:46:13;9.70;;;8.15;;
9413;SDS011;4746;35.664;139.738;2022-08-01T04:48:43;9.13;;;7.32;;
9413;SDS011;4746;35.664;139.738;2022-08-01T04:51:12;11.45;;;8.77;;
9413;SDS011;4746;35.664;139.738;2022-08-01T04:53:42;10.15;;;7.13;;
9413;SDS011;4746;35.664;139.738;2022-08-01T04:56:13;8.63;;;7.90;;
9413;SDS011;4746;35.664;139.738;2022-08-01T04:58:42;11.63;;;8.60;;
9413;SDS011;4746;35.664;139.738;2022-08-01T05:01:10;12.18;;;7.03;;
9413;SDS011;4746;35.664;139.738;2022-08-01T05:03:38;10.35;;;7.68;;
9413;SDS011;4746;35.664;139.738;2022-08-01T05:06:06;12.25;;;8.50;;
9413;SDS011;4746;35.664;139.738;2022-08-01T05:08:34;8.25;;;7.35;;
9413;SDS011;4746;35.664;139.738;2022-08-01T05:11:01;11.07;;;7.20;;
9413;SDS011;4746;35.664;139.738;2022-08-01T05:13:29;8.57;;;7.65;;
9413;SDS011;4746;35.664;139.738;2022-08-01T05:15:57;8.40;;;7.43;;
9413;SDS011;4746;35.664;139.738;2022-08-01T05:18:24;6.35;;;5.75;;
9413;SDS011;4746;35.664;139.738;2022-08-01T05:20:52;8.45;;;5.75;;
9413;SDS011;4746;35.664;139.738;2022-08-01T05:23:19;6.72;;;6.13;;
9413;SDS011;4746;35.664;139.738;2022-08-01T05:25:47;7.28;;;5.93;;
9413;SDS011;4746;35.664;139.738;2022-08-01T05:28:15;6.38;;;5.78;;
9413;SDS011;4746;35.664;139.738;2022-08-01T05:30:42;6.32;;;5.72;;
9413;SDS011;4746;35.664;139.738;2022-08-01T05:33:10;7.10;;;5.78;;
9413;SDS011;4746;35.664;139.738;2022-08-01T05:35:37;7.80;;;6.20;;
9413;SDS011;4746;35.664;139.738;2022-08-01T05:38:05;12.30;;;6.18;;
9413;SDS011;4746;35.664;139.738;2022-08-01T05:40:32;6.03;;;5.30;;
9413;SDS011;4746;35.664;139.738;2022-08-01T05:43:01;9.13;;;6.68;;
9413;SDS011;4746;35.664;139.738;2022-08-01T05:45:29;11.30;;;6.30;;
9413;SDS011;4746;35.664;139.738;2022-08-01T05:47:56;6.15;;;5.55;;
9413;SDS011;4746;35.664;139.738;2022-08-01T05:50:24;6.88;;;6.10;;
9413;SDS011;4746;35.664;139.738;2022-08-01T05:52:51;6.38;;;5.32;;
9413;SDS011;4746;35.664;139.738;2022-08-01T05:55:19;10.07;;;5.85;;
9413;SDS011;4746;35.664;139.738;2022-08-01T05:57:46;8.32;;;5.63;;
9413;SDS011;4746;35.664;139.738;2022-08-01T06:00:14;7.60;;;6.10;;
9413;SDS011;4746;35.664;139.738;2022-08-01T06:02:42;12.90;;;6.20;;
9413;SDS011;4746;35.664;139.738;2022-08-01T06:05:09;9.05;;;6.30;;
9413;SDS011;4746;35.664;139.738;2022-08-01T06:07:37;10.52;;;5.82;;
9413;SDS011;4746;35.664;139.738;2022-08-01T06:10:05;10.88;;;5.90;;
9413;SDS011;4746;35.664;139.738;2022-08-01T06:12:34;6.93;;;5.63;;
9413;SDS011;4746;35.664;139.738;2022-08-01T06:15:03;10.25;;;7.05;;
9413;SDS011;4746;35.664;139.738;2022-08-01T06:17:32;8.10;;;6.22;;
9413;SDS011;4746;35.664;139.738;2022-08-01T06:19:59;7.38;;;5.95;;
9413;SDS011;4746;35.664;139.738;2022-08-01T06:22:28;10.60;;;8.10;;
9413;SDS011;4746;35.664;139.738;2022-08-01T06:24:55;8.23;;;7.43;;
9413;SDS011;4746;35.664;139.738;2022-08-01T06:27:23;9.10;;;6.75;;
9413;SDS011;4746;35.664;139.738;2022-08-01T06:29:51;9.23;;;7.07;;
9413;SDS011;4746;35.664;139.738;2022-08-01T06:32:22;9.20;;;6.80;;
9413;SDS011;4746;35.664;139.738;2022-08-01T06:34:50;6.65;;;6.05;;
9413;SDS011;4746;35.664;139.738;2022-08-01T06:37:18;7.45;;;5.72;;
9413;SDS011;4746;35.664;139.738;2022-08-01T06:39:46;7.68;;;6.93;;
9413;SDS011;4746;35.664;139.738;2022-08-01T06:42:14;6.75;;;6.03;;
9413;SDS011;4746;35.664;139.738;2022-08-01T06:44:42;7.03;;;5.93;;
9413;SDS011;4746;35.664;139.738;2022-08-01T06:47:10;6.28;;;5.20;;
9413;SDS011;4746;35.664;139.738;2022-08-01T06:49:38;6.20;;;5.40;;
9413;SDS011;4746;35.664;139.738;2022-08-01T06:52:05;9.23;;;5.88;;
9413;SDS011;4746;35.664;139.738;2022-08-01T06:54:35;8.43;;;6.13;;
9413;SDS011;4746;35.664;139.738;2022-08-01T06:57:05;6.55;;;5.75;;
9413;SDS011;4746;35.664;139.738;2022-08-01T06:59:33;6.60;;;6.00;;
9413;SDS011;4746;35.664;139.738;2022-08-01T07:02:00;7.20;;;6.40;;
9413;SDS011;4746;35.664;139.738;2022-08-01T07:04:28;8.35;;;6.50;;
9413;SDS011;4746;35.664;139.738;2022-08-01T07:06:56;10.48;;;7.60;;
9413;SDS011;4746;35.664;139.738;2022-08-01T07:09:24;8.57;;;6.85;;
9413;SDS011;4746;35.664;139.738;2022-08-01T07:12:10;7.57;;;6.75;;
9413;SDS011;4746;35.664;139.738;2022-08-01T07:14:37;10.57;;;7.30;;
9413;SDS011;4746;35.664;139.738;2022-08-01T07:17:05;10.13;;;6.75;;
9413;SDS011;4746;35.664;139.738;2022-08-01T07:19:32;12.30;;;7.00;;
9413;SDS011;4746;35.664;139.738;2022-08-01T07:22:00;15.82;;;7.18;;
9413;SDS011;4746;35.664;139.738;2022-08-01T07:24:28;8.00;;;6.28;;
9413;SDS011;4746;35.664;139.738;2022-08-01T07:26:55;8.93;;;6.95;;
9413;SDS011;4746;35.664;139.738;2022-08-01T07:29:26;10.88;;;7.07;;
9413;SDS011;4746;35.664;139.738;2022-08-01T07:31:55;10.70;;;6.72;;
9413;SDS011;4746;35.664;139.738;2022-08-01T07:34:23;9.68;;;6.18;;
9413;SDS011;4746;35.664;139.738;2022-08-01T07:36:51;6.35;;;5.70;;
9413;SDS011;4746;35.664;139.738;2022-08-01T07:39:19;8.43;;;5.78;;
9413;SDS011;4746;35.664;139.738;2022-08-01T07:41:47;10.18;;;5.90;;
9413;SDS011;4746;35.664;139.738;2022-08-01T07:44:15;9.07;;;6.03;;
9413;SDS011;4746;35.664;139.738;2022-08-01T07:46:42;8.95;;;6.20;;
9413;SDS011;4746;35.664;139.738;2022-08-01T07:49:10;6.47;;;5.43;;
9413;SDS011;4746;35.664;139.738;2022-08-01T07:51:37;6.78;;;5.20;;
9413;SDS011;4746;35.664;139.738;2022-08-01T07:54:05;8.23;;;5.43;;
9413;SDS011;4746;35.664;139.738;2022-08-01T07:56:33;8.07;;;5.70;;
9413;SDS011;4746;35.664;139.738;2022-08-01T07:59:00;7.22;;;5.75;;
9413;SDS011;4746;35.664;139.738;2022-08-01T08:01:28;7.18;;;5.22;;
9413;SDS011;4746;35.664;139.738;2022-08-01T08:03:55;5.90;;;5.30;;
9413;SDS011;4746;35.664;139.738;2022-08-01T08:06:23;5.57;;;5.00;;
9413;SDS011;4746;35.664;139.738;2022-08-01T08:08:50;5.72;;;4.57;;
9413;SDS011;4746;35.664;139.738;2022-08-01T08:11:19;9.32;;;5.43;;
9413;SDS011;4746;35.664;139.738;2022-08-01T08:13:46;8.73;;;4.88;;
9413;SDS011;4746;35.664;139.738;2022-08-01T08:16:14;8.63;;;5.68;;
9413;SDS011;4746;35.664;139.738;2022-08-01T08:18:41;6.05;;;5.45;;
9413;SDS011;4746;35.664;139.738;2022-08-01T08:21:09;6.95;;;5.07;;
9413;SDS011;4746;35.664;139.738;2022-08-01T08:23:36;8.35;;;5.22;;
9413;SDS011;4746;35.664;139.738;2022-08-01T08:26:22;10.95;;;7.07;;
9413;SDS011;4746;35.664;139.738;2022-08-01T08:28:50;7.72;;;6.03;;
9413;SDS011;4746;35.664;139.738;2022-08-01T08:31:18;7.20;;;5.32;;
9413;SDS011;4746;35.664;139.738;2022-08-01T08:33:45;8.80;;;5.63;;
9413;SDS011;4746;35.664;139.738;2022-08-01T08:36:13;7.85;;;4.97;;
9413;SDS011;4746;35.664;139.738;2022-08-01T08:38:41;6.40;;;5.15;;
9413;SDS011;4746;35.664;139.738;2022-08-01T08:41:08;8.05;;;5.50;;
9413;SDS011;4746;35.664;139.738;2022-08-01T08:43:37;7.30;;;5.32;;
9413;SDS011;4746;35.664;139.738;2022-08-01T08:46:05;8.52;;;5.80;;
9413;SDS011;4746;35.664;139.738;2022-08-01T08:48:34;6.72;;;5.43;;
9413;SDS011;4746;35.664;139.738;2022-08-01T08:51:05;7.65;;;5.88;;
9413;SDS011;4746;35.664;139.738;2022-08-01T08:53:36;7.35;;;5.93;;
9413;SDS011;4746;35.664;139.738;2022-08-01T08:56:11;6.85;;;5.25;;
9413;SDS011;4746;35.664;139.738;2022-08-01T08:58:41;7.55;;;4.70;;
9413;SDS011;4746;35.664;139.738;2022-08-01T09:01:10;9.80;;;5.63;;
9413;SDS011;4746;35.664;139.738;2022-08-01T09:03:39;6.15;;;5.30;;
9413;SDS011;4746;35.664;139.738;2022-08-01T09:06:07;6.43;;;4.70;;
9413;SDS011;4746;35.664;139.738;2022-08-01T09:08:34;8.73;;;5.28;;
9413;SDS011;4746;35.664;139.738;2022-08-01T09:11:02;6.82;;;4.85;;
9413;SDS011;4746;35.664;139.738;2022-08-01T09:13:30;6.85;;;4.43;;
9413;SDS011;4746;35.664;139.738;2022-08-01T09:15:58;5.20;;;4.38;;
9413;SDS011;4746;35.664;139.738;2022-08-01T09:18:27;6.10;;;4.95;;
9413;SDS011;4746;35.664;139.738;2022-08-01T09:23:41;8.07;;;5.50;;
9413;SDS011;4746;35.664;139.738;2022-08-01T09:26:11;5.55;;;4.95;;
9413;SDS011;4746;35.664;139.738;2022-08-01T09:28:43;8.05;;;5.50;;
9413;SDS011;4746;35.664;139.738;2022-08-01T09:31:13;8.90;;;5.40;;
9413;SDS011;4746;35.664;139.738;2022-08-01T09:33:54;7.22;;;5.13;;
9413;SDS011;4746;35.664;139.738;2022-08-01T09:36:25;9.57;;;5.78;;
9413;SDS011;4746;35.664;139.738;2022-08-01T09:39:12;6.13;;;5.15;;
9413;SDS011;4746;35.664;139.738;2022-08-01T09:41:41;12.15;;;5.78;;
9413;SDS011;4746;35.664;139.738;2022-08-01T09:44:08;8.02;;;5.47;;
9413;SDS011;4746;35.664;139.738;2022-08-01T09:46:35;5.90;;;4.78;;
9413;SDS011;4746;35.664;139.738;2022-08-01T09:49:28;8.57;;;5.78;;
9413;SDS011;4746;35.664;139.738;2022-08-01T09:52:10;6.90;;;5.05;;
9413;SDS011;4746;35.664;139.738;2022-08-01T09:54:58;9.85;;;5.85;;
9413;SDS011;4746;35.664;139.738;2022-08-01T09:57:31;7.88;;;5.40;;
9413;SDS011;4746;35.664;139.738;2022-08-01T09:59:59;8.13;;;5.40;;
9413;SDS011;4746;35.664;139.738;2022-08-01T10:02:38;6.43;;;5.68;;
9413;SDS011;4746;35.664;139.738;2022-08-01T10:05:07;8.73;;;5.50;;
9413;SDS011;4746;35.664;139.738;2022-08-01T10:07:55;9.23;;;6.72;;
9413;SDS011;4746;35.664;139.738;2022-08-01T10:10:26;8.32;;;6.50;;
9413;SDS011;4746;35.664;139.738;2022-08-01T10:12:55;10.73;;;7.63;;
9413;SDS011;4746;35.664;139.738;2022-08-01T10:15:25;11.05;;;7.30;;
9413;SDS011;4746;35.664;139.738;2022-08-01T10:17:54;11.60;;;7.78;;
9413;SDS011;4746;35.664;139.738;2022-08-01T10:20:28;9.65;;;7.03;;
9413;SDS011;4746;35.664;139.738;2022-08-01T10:22:58;10.05;;;7.55;;
9413;SDS011;4746;35.664;139.738;2022-08-01T10:25:31;13.60;;;8.50;;
9413;SDS011;4746;35.664;139.738;2022-08-01T10:28:08;11.50;;;8.15;;
9413;SDS011;4746;35.664;139.738;2022-08-01T10:30:42;12.38;;;8.75;;
9413;SDS011;4746;35.664;139.738;2022-08-01T10:33:11;16.38;;;9.60;;
9413;SDS011;4746;35.664;139.738;2022-08-01T10:35:41;11.07;;;8.95;;
9413;SDS011;4746;35.664;139.738;2022-08-01T10:38:12;15.18;;;10.45;;
9413;SDS011;4746;35.664;139.738;2022-08-01T10:40:43;14.23;;;10.23;;
9413;SDS011;4746;35.664;139.738;2022-08-01T10:43:11;11.80;;;8.93;;
9413;SDS011;4746;35.664;139.738;2022-08-01T10:45:44;13.48;;;9.80;;
9413;SDS011;4746;35.664;139.738;2022-08-01T10:51:05;16.17;;;10.13;;
9413;SDS011;4746;35.664;139.738;2022-08-01T10:53:34;15.90;;;10.55;;
9413;SDS011;4746;35.664;139.738;2022-08-01T10:56:02;11.82;;;9.50;;
9413;SDS011;4746;35.664;139.738;2022-08-01T10:58:37;15.57;;;10.50;;
9413;SDS011;4746;35.664;139.738;2022-08-01T11:01:23;13.55;;;10.10;;
9413;SDS011;4746;35.664;139.738;2022-08-01T11:06:42;13.80;;;10.23;;
9413;SDS011;4746;35.664;139.738;2022-08-01T11:20:23;14.70;;;11.57;;
9413;SDS011;4746;35.664;139.738;2022-08-01T11:25:26;12.35;;;9.90;;
9413;SDS011;4746;35.664;139.738;2022-08-01T11:28:21;14.98;;;10.68;;
9413;SDS011;4746;35.664;139.738;2022-08-01T11:31:33;14.20;;;10.05;;
9413;SDS011;4746;35.664;139.738;2022-08-01T11:38:44;13.43;;;9.30;;
9413;SDS011;4746;35.664;139.738;2022-08-01T11:57:34;16.05;;;11.00;;
9413;SDS011;4746;35.664;139.738;2022-08-01T12:02:40;16.45;;;12.23;;
9413;SDS011;4746;35.664;139.738;2022-08-01T12:05:12;20.95;;;12.48;;
9413;SDS011;4746;35.664;139.738;2022-08-01T12:07:43;14.35;;;11.13;;
9413;SDS011;4746;35.664;139.738;2022-08-01T12:10:18;17.15;;;12.07;;
9413;SDS011;4746;35.664;139.738;2022-08-01T12:12:52;15.68;;;12.02;;
9413;SDS011;4746;35.664;139.738;2022-08-01T12:15:32;15.40;;;12.15;;
9413;SDS011;4746;35.664;139.738;2022-08-01T12:18:03;16.65;;;11.65;;
9413;SDS011;4746;35.664;139.738;2022-08-01T12:20:33;15.82;;;12.07;;
9413;SDS011;4746;35.664;139.738;2022-08-01T12:23:10;18.15;;;11.48;;
9413;SDS011;4746;35.664;139.738;2022-08-01T12:25:41;14.02;;;11.65;;
9413;SDS011;4746;35.664;139.738;2022-08-01T12:28:13;15.27;;;11.32;;
9413;SDS011;4746;35.664;139.738;2022-08-01T12:30:43;13.35;;;11.52;;
9413;SDS011;4746;35.664;139.738;2022-08-01T12:33:19;17.52;;;11.70;;
9413;SDS011;4746;35.664;139.738;2022-08-01T12:35:47;11.90;;;10.70;;
9413;SDS011;4746;35.664;139.738;2022-08-01T12:38:19;16.90;;;10.80;;
9413;SDS011;4746;35.664;139.738;2022-08-01T12:40:50;14.15;;;11.65;;
9413;SDS011;4746;35.664;139.738;2022-08-01T12:43:19;13.95;;;10.30;;
9413;SDS011;4746;35.664;139.738;2022-08-01T12:45:51;12.57;;;10.45;;
9413;SDS011;4746;35.664;139.738;2022-08-01T12:48:22;12.52;;;10.57;;
9413;SDS011;4746;35.664;139.738;2022-08-01T12:50:51;14.57;;;10.65;;
9413;SDS011;4746;35.664;139.738;2022-08-01T12:53:22;14.20;;;11.00;;
9413;SDS011;4746;35.664;139.738;2022-08-01T12:55:52;13.50;;;10.30;;
9413;SDS011;4746;35.664;139.738;2022-08-01T12:58:21;14.82;;;10.95;;
9413;SDS011;4746;35.664;139.738;2022-08-01T13:00:49;16.50;;;11.18;;
9413;SDS011;4746;35.664;139.738;2022-08-01T13:03:32;13.57;;;11.00;;
9413;SDS011;4746;35.664;139.738;2022-08-01T13:06:01;15.27;;;10.60;;
9413;SDS011;4746;35.664;139.738;2022-08-01T13:08:39;15.75;;;10.88;;
9413;SDS011;4746;35.664;139.738;2022-08-01T13:11:08;15.07;;;10.02;;
9413;SDS011;4746;35.664;139.738;2022-08-01T13:13:45;14.52;;;11.38;;
9413;SDS011;4746;35.664;139.738;2022-08-01T13:16:18;10.65;;;9.40;;
9413;SDS011;4746;35.664;139.738;2022-08-01T13:18:51;12.13;;;9.77;;
9413;SDS011;4746;35.664;139.738;2022-08-01T13:21:22;11.90;;;9.75;;
9413;SDS011;4746;35.664;139.738;2022-08-01T13:24:09;13.02;;;9.63;;
9413;SDS011;4746;35.664;139.738;2022-08-01T13:29:20;12.65;;;9.82;;
9413;SDS011;4746;35.664;139.738;2022-08-01T13:31:57;13.48;;;9.48;;
9413;SDS011;4746;35.664;139.738;2022-08-01T13:34:32;12.88;;;9.45;;
9413;SDS011;4746;35.664;139.738;2022-08-01T13:37:01;11.73;;;9.45;;
9413;SDS011;4746;35.664;139.738;2022-08-01T13:39:29;12.27;;;9.98;;
9413;SDS011;4746;35.664;139.738;2022-08-01T13:42:13;11.40;;;8.93;;
9413;SDS011;4746;35.664;139.738;2022-08-01T13:44:43;13.02;;;9.68;;
9413;SDS011;4746;35.664;139.738;2022-08-01T13:47:11;14.77;;;9.75;;
9413;SDS011;4746;35.664;139.738;2022-08-01T13:49:39;14.02;;;9.43;;
9413;SDS011;4746;35.664;139.738;2022-08-01T13:52:06;14.75;;;10.32;;
9413;SDS011;4746;35.664;139.738;2022-08-01T13:54:34;14.77;;;10.60;;
9413;SDS011;4746;35.664;139.738;2022-08-01T13:57:02;16.35;;;13.38;;
9413;SDS011;4746;35.664;139.738;2022-08-01T13:59:29;14.25;;;11.93;;
9413;SDS011;4746;35.664;139.738;2022-08-01T14:01:57;13.43;;;11.38;;
9413;SDS011;4746;35.664;139.738;2022-08-01T14:04:24;13.63;;;11.07;;
9413;SDS011;4746;35.664;139.738;2022-08-01T14:06:52;13.20;;;10.90;;
9413;SDS011;4746;35.664;139.738;2022-08-01T14:09:19;12.07;;;10.77;;
9413;SDS011;4746;35.664;139.738;2022-08-01T14:11:48;13.98;;;11.45;;
9413;SDS011;4746;35.664;139.738;2022-08-01T14:14:16;14.70;;;11.43;;
9413;SDS011;4746;35.664;139.738;2022-08-01T14:16:44;14.05;;;10.73;;
9413;SDS011;4746;35.664;139.738;2022-08-01T14:19:11;13.23;;;10.30;;
9413;SDS011;4746;35.664;139.738;2022-08-01T14:21:41;12.05;;;10.40;;
9413;SDS011;4746;35.664;139.738;2022-08-01T14:24:09;14.13;;;11.07;;
9413;SDS011;4746;35.664;139.738;2022-08-01T14:26:36;14.05;;;10.43;;
9413;SDS011;4746;35.664;139.738;2022-08-01T14:29:04;13.80;;;10.55;;
9413;SDS011;4746;35.664;139.738;2022-08-01T14:31:31;9.48;;;8.60;;
9413;SDS011;4746;35.664;139.738;2022-08-01T14:33:59;7.60;;;6.90;;
9413;SDS011;4746;35.664;139.738;2022-08-01T14:36:27;7.30;;;6.57;;
9413;SDS011;4746;35.664;139.738;2022-08-01T14:38:54;7.70;;;6.82;;
9413;SDS011;4746;35.664;139.738;2022-08-01T14:41:22;7.30;;;6.22;;
9413;SDS011;4746;35.664;139.738;2022-08-01T14:43:49;6.80;;;6.20;;
9413;SDS011;4746;35.664;139.738;2022-08-01T14:46:17;7.00;;;6.30;;
9413;SDS011;4746;35.664;139.738;2022-08-01T14:48:44;6.78;;;6.18;;
9413;SDS011;4746;35.664;139.738;2022-08-01T14:51:12;6.35;;;5.78;;
9413;SDS011;4746;35.664;139.738;2022-08-01T14:53:39;6.55;;;5.88;;
9413;SDS011;4746;35.664;139.738;2022-08-01T14:56:08;6.63;;;6.05;;
9413;SDS011;4746;35.664;139.738;2022-08-01T14:58:35;6.47;;;5.85;;
9413;SDS011;4746;35.664;139.738;2022-08-01T15:01:02;8.07;;;6.20;;
9413;SDS011;4746;35.664;139.738;2022-08-01T15:03:31;6.90;;;6.22;;
9413;SDS011;4746;35.664;139.738;2022-08-01T15:05:58;7.57;;;5.85;;
9413;SDS011;4746;35.664;139.738;2022-08-01T15:08:26;8.77;;;5.97;;
9413;SDS011;4746;35.664;139.738;2022-08-01T15:10:55;4.95;;;4.45;;
9413;SDS011;4746;35.664;139.738;2022-08-01T15:13:22;5.40;;;4.95;;
9413;SDS011;4746;35.664;139.738;2022-08-01T15:15:50;4.70;;;4.40;;
9413;SDS011;4746;35.664;139.738;2022-08-01T15:18:17;4.80;;;4.40;;
9413;SDS011;4746;35.664;139.738;2022-08-01T15:20:45;4.05;;;3.75;;
9413;SDS011;4746;35.664;139.738;2022-08-01T15:23:12;4.72;;;4.32;;
9413;SDS011;4746;35.664;139.738;2022-08-01T15:25:40;4.05;;;3.75;;
9413;SDS011;4746;35.664;139.738;2022-08-01T15:28:08;3.63;;;3.42;;
9413;SDS011;4746;35.664;139.738;2022-08-01T15:30:37;4.32;;;3.92;;
9413;SDS011;4746;35.664;139.738;2022-08-01T15:33:06;3.80;;;3.53;;
9413;SDS011;4746;35.664;139.738;2022-08-01T15:35:33;4.10;;;3.80;;
9413;SDS011;4746;35.664;139.738;2022-08-01T15:38:01;3.42;;;3.20;;
9413;SDS011;4746;35.664;139.738;2022-08-01T15:40:30;4.03;;;3.72;;
9413;SDS011;4746;35.664;139.738;2022-08-01T15:42:59;3.78;;;3.58;;
9413;SDS011;4746;35.664;139.738;2022-08-01T15:45:27;3.85;;;3.58;;
9413;SDS011;4746;35.664;139.738;2022-08-01T15:47:55;4.00;;;3.70;;
9413;SDS011;4746;35.664;139.738;2022-08-01T15:50:23;3.83;;;3.63;;
9413;SDS011;4746;35.664;139.738;2022-08-01T15:52:50;3.67;;;3.47;;
9413;SDS011;4746;35.664;139.738;2022-08-01T15:55:18;3.97;;;3.67;;
9413;SDS011;4746;35.664;139.738;2022-08-01T15:57:46;3.42;;;3.20;;
9413;SDS011;4746;35.664;139.738;2022-08-01T16:00:14;3.35;;;3.15;;
9413;SDS011;4746;35.664;139.738;2022-08-01T16:02:41;3.70;;;3.47;;
9413;SDS011;4746;35.664;139.738;2022-08-01T16:05:09;4.07;;;3.70;;
9413;SDS011;4746;35.664;139.738;2022-08-01T16:07:39;4.13;;;3.70;;